Time;durP1;ratioP1;P1;durP2;ratioP2;P2;SDS_P1;SDS_P2;PMS_P1;PMS_P2;Temp;Humidity;BMP_temperature;BMP_pressure;BME280_temperature;BME280_humidity;BME280_pressure;Samples;Min_cycle;Max_cycle;Signal;HPM_P1;HPM_P2
2023/05/09 00:00:38;;;;;;;7.87;7.10;;;11.20;99.90;;;;;;5033293;28;20171;-82
2023/05/09 00:03:04;;;;;;;7.87;7.07;;;11.20;99.90;;;;;;5031331;28;20194;-81
2023/05/09 00:05:30;;;;;;;11.30;8.07;;;11.10;99.90;;;;;;5032679;28;20217;-83
2023/05/09 00:07:56;;;;;;;9.07;7.70;;;11.10;99.90;;;;;;5032718;28;20180;-81
2023/05/09 00:10:22;;;;;;;11.60;7.53;;;11.10;99.90;;;;;;5033155;28;20234;-82
2023/05/09 00:12:48;;;;;;;9.00;7.40;;;11.10;99.90;;;;;;5034398;28;20210;-81
2023/05/09 00:15:14;;;;;;;7.47;6.77;;;11.10;99.90;;;;;;5034896;28;20550;-82
2023/05/09 00:17:40;;;;;;;8.27;7.13;;;11.10;99.90;;;;;;5034767;28;20203;-82
2023/05/09 00:20:10;;;;;;;8.90;7.30;;;11.00;99.90;;;;;;5030963;28;20647;-82
2023/05/09 00:22:36;;;;;;;8.47;7.17;;;11.00;99.90;;;;;;5031012;28;20182;-82
2023/05/09 00:25:03;;;;;;;9.57;7.60;;;11.00;99.90;;;;;;5031013;28;20186;-83
2023/05/09 00:27:29;;;;;;;9.40;7.17;;;10.90;99.90;;;;;;5030894;28;20183;-83
2023/05/09 00:29:55;;;;;;;8.73;7.20;;;10.90;99.90;;;;;;5032128;28;20222;-81
2023/05/09 00:32:21;;;;;;;9.13;7.33;;;10.90;99.90;;;;;;5030820;28;20208;-81
2023/05/09 00:34:49;;;;;;;11.87;7.33;;;10.90;99.90;;;;;;5032376;28;20249;-80
2023/05/09 00:37:17;;;;;;;10.17;7.73;;;10.90;99.90;;;;;;5030581;28;20521;-82
2023/05/09 00:39:42;;;;;;;9.30;7.87;;;10.90;99.90;;;;;;5030490;28;20307;-81
2023/05/09 00:42:08;;;;;;;8.03;6.83;;;10.80;99.90;;;;;;5032256;28;20294;-82
2023/05/09 00:44:35;;;;;;;10.03;7.37;;;10.80;99.90;;;;;;5032318;28;20175;-82
2023/05/09 00:47:10;;;;;;;12.43;7.73;;;10.80;99.90;;;;;;5036861;28;20194;-84
2023/05/09 00:49:37;;;;;;;8.20;7.40;;;10.80;99.90;;;;;;5014949;28;20704;-81
2023/05/09 00:52:04;;;;;;;7.83;7.00;;;10.80;99.90;;;;;;5031190;28;20215;-81
2023/05/09 00:54:30;;;;;;;9.40;6.70;;;10.80;99.90;;;;;;5033518;28;20175;-82
2023/05/09 00:56:55;;;;;;;7.10;6.40;;;10.80;99.90;;;;;;5031929;28;20189;-81
2023/05/09 00:59:21;;;;;;;8.60;6.93;;;10.70;99.90;;;;;;5032440;28;20205;-81
2023/05/09 01:01:47;;;;;;;9.03;7.50;;;10.70;99.90;;;;;;5030774;28;20286;-82
2023/05/09 01:04:14;;;;;;;8.97;7.10;;;10.70;99.90;;;;;;5032196;28;20188;-81
2023/05/09 01:07:02;;;;;;;7.90;7.10;;;10.60;99.90;;;;;;5035489;28;20249;-81
2023/05/09 01:09:39;;;;;;;8.63;7.30;;;10.60;99.90;;;;;;5030753;28;20179;-82
2023/05/09 01:12:39;;;;;;;9.70;7.27;;;10.60;99.90;;;;;;5030676;28;20213;-82
2023/05/09 01:15:37;;;;;;;8.10;6.90;;;10.50;99.90;;;;;;5032422;28;20163;-82
2023/05/09 01:18:32;;;;;;;7.77;7.03;;;10.50;99.90;;;;;;5031273;28;20282;-81
2023/05/09 01:21:07;;;;;;;7.10;6.40;;;10.40;99.90;;;;;;5035995;28;20178;-85
2023/05/09 01:23:45;;;;;;;7.70;6.73;;;10.40;99.90;;;;;;5035070;28;20179;-81
2023/05/09 01:26:32;;;;;;;8.23;7.00;;;10.40;99.90;;;;;;5034458;28;20505;-82
2023/05/09 01:29:29;;;;;;;7.80;6.80;;;10.40;99.90;;;;;;5036136;28;20157;-83
2023/05/09 01:31:56;;;;;;;7.87;6.80;;;10.50;99.90;;;;;;5036464;28;20215;-82
2023/05/09 01:34:27;;;;;;;7.10;6.40;;;10.50;99.90;;;;;;5036027;28;20175;-81
2023/05/09 01:36:58;;;;;;;7.13;6.43;;;10.50;99.90;;;;;;5034799;28;20178;-82
2023/05/09 01:39:26;;;;;;;7.50;6.37;;;10.50;99.90;;;;;;5039027;28;20181;-81
2023/05/09 01:41:55;;;;;;;9.30;6.67;;;10.40;99.90;;;;;;5038414;28;20278;-81
2023/05/09 01:44:22;;;;;;;8.27;6.63;;;10.20;99.90;;;;;;5035990;28;20188;-82
2023/05/09 01:46:52;;;;;;;7.90;6.73;;;10.40;99.90;;;;;;5034026;28;20223;-83
2023/05/09 01:49:19;;;;;;;12.10;7.07;;;10.40;99.90;;;;;;5035270;28;20178;-82
2023/05/09 01:51:47;;;;;;;8.97;6.60;;;10.40;99.90;;;;;;5034752;28;20217;-81
2023/05/09 01:54:14;;;;;;;6.63;6.03;;;10.40;99.90;;;;;;5035145;28;20265;-82
2023/05/09 01:56:42;;;;;;;9.47;6.77;;;10.50;99.90;;;;;;5033420;28;20205;-82
2023/05/09 01:59:09;;;;;;;7.37;6.60;;;10.50;99.90;;;;;;5034017;28;20178;-83
2023/05/09 02:01:35;;;;;;;9.47;6.73;;;10.50;99.90;;;;;;5035223;28;20174;-83
2023/05/09 02:04:03;;;;;;;6.53;5.93;;;10.50;99.90;;;;;;5035369;28;20177;-82
2023/05/09 02:06:31;;;;;;;7.43;6.33;;;10.50;99.90;;;;;;5036744;28;20243;-82
2023/05/09 02:08:58;;;;;;;6.50;5.87;;;10.60;99.90;;;;;;5048811;28;20247;-81
2023/05/09 02:11:23;;;;;;;6.97;6.27;;;10.70;99.90;;;;;;5034979;28;20201;-83
2023/05/09 02:13:49;;;;;;;9.13;6.23;;;10.60;99.90;;;;;;5033618;28;20205;-82
2023/05/09 02:16:15;;;;;;;7.13;6.43;;;10.60;99.90;;;;;;5034725;28;20182;-81
2023/05/09 02:18:41;;;;;;;6.77;6.13;;;10.50;99.90;;;;;;5034935;28;20170;-82
2023/05/09 02:21:07;;;;;;;7.50;6.23;;;10.50;99.90;;;;;;5033144;28;20281;-82
2023/05/09 02:23:33;;;;;;;8.43;6.27;;;10.50;99.90;;;;;;5033474;28;20186;-82
2023/05/09 02:26:00;;;;;;;6.97;6.27;;;10.50;99.90;;;;;;5033536;28;20189;-81
2023/05/09 02:28:27;;;;;;;7.00;6.30;;;10.50;99.90;;;;;;5034860;28;20178;-82
2023/05/09 02:30:55;;;;;;;7.87;6.47;;;10.60;99.90;;;;;;5035942;28;20264;-82
2023/05/09 02:33:22;;;;;;;6.63;5.90;;;10.60;99.90;;;;;;5034792;28;20229;-82
2023/05/09 02:35:49;;;;;;;7.97;6.57;;;10.60;99.90;;;;;;5034799;28;20270;-81
2023/05/09 02:38:15;;;;;;;6.60;5.90;;;10.60;99.90;;;;;;5034757;28;20167;-82
2023/05/09 02:40:43;;;;;;;5.93;5.40;;;10.60;99.90;;;;;;5039060;28;20190;-85
2023/05/09 02:43:09;;;;;;;7.33;5.77;;;10.70;99.90;;;;;;5034040;28;20186;-83
2023/05/09 02:45:35;;;;;;;6.37;5.57;;;10.70;99.90;;;;;;5033756;28;20241;-81
2023/05/09 02:48:01;;;;;;;6.30;5.70;;;10.70;99.90;;;;;;5033385;28;20194;-82
2023/05/09 02:50:26;;;;;;;6.10;5.47;;;10.70;99.90;;;;;;5034312;28;20186;-80
2023/05/09 02:52:52;;;;;;;5.37;4.87;;;10.60;99.90;;;;;;5034703;28;20203;-82
2023/05/09 02:55:18;;;;;;;6.40;5.77;;;10.50;99.90;;;;;;5033785;28;20188;-82
2023/05/09 02:57:43;;;;;;;5.60;5.20;;;10.50;99.90;;;;;;5034394;28;20184;-81
2023/05/09 03:00:10;;;;;;;5.73;5.23;;;10.50;99.90;;;;;;5039820;28;20163;-81
2023/05/09 03:02:37;;;;;;;7.47;5.53;;;10.50;99.90;;;;;;5053648;28;20205;-82
2023/05/09 03:05:03;;;;;;;5.93;5.43;;;10.50;99.90;;;;;;5053033;28;20183;-81
2023/05/09 03:07:29;;;;;;;6.20;5.60;;;10.60;99.90;;;;;;5039192;28;20185;-81
2023/05/09 03:09:55;;;;;;;6.33;5.80;;;10.50;99.90;;;;;;5035697;28;20845;-83
2023/05/09 03:12:21;;;;;;;8.27;5.63;;;10.60;99.90;;;;;;5034418;28;20215;-82
2023/05/09 03:14:47;;;;;;;5.87;5.27;;;10.60;99.90;;;;;;5034147;28;20648;-83
2023/05/09 03:17:16;;;;;;;6.23;5.63;;;10.60;99.90;;;;;;5033871;28;20514;-82
2023/05/09 03:19:42;;;;;;;5.60;5.10;;;10.60;99.90;;;;;;5033889;28;20181;-81
2023/05/09 03:22:08;;;;;;;7.37;5.70;;;10.50;99.90;;;;;;5034217;28;20179;-81
2023/05/09 03:24:33;;;;;;;5.73;5.20;;;10.40;99.90;;;;;;5035832;28;20604;-82
2023/05/09 03:26:59;;;;;;;6.03;5.50;;;10.50;99.90;;;;;;5037490;28;20183;-81
2023/05/09 03:29:25;;;;;;;5.90;5.40;;;10.50;99.90;;;;;;5046998;28;20174;-82
2023/05/09 03:31:51;;;;;;;5.73;5.23;;;10.50;99.90;;;;;;5036902;28;20463;-81
2023/05/09 03:34:16;;;;;;;5.50;5.00;;;10.50;99.90;;;;;;5036624;28;20184;-82
2023/05/09 03:36:43;;;;;;;5.80;5.30;;;10.40;99.90;;;;;;5047657;28;20180;-82
2023/05/09 03:39:09;;;;;;;6.00;4.83;;;10.40;99.90;;;;;;5045234;28;20180;-82
2023/05/09 03:41:35;;;;;;;5.93;5.33;;;10.30;99.90;;;;;;5041036;28;20183;-82
2023/05/09 03:44:02;;;;;;;5.50;5.00;;;10.40;99.90;;;;;;5033936;28;20174;-82
2023/05/09 03:46:28;;;;;;;5.17;4.67;;;10.50;99.90;;;;;;5033607;28;20269;-81
2023/05/09 03:48:54;;;;;;;8.47;4.90;;;10.40;99.90;;;;;;5033325;28;20192;-82
2023/05/09 03:51:20;;;;;;;5.80;5.20;;;10.40;99.90;;;;;;5033337;28;20626;-83
2023/05/09 03:53:46;;;;;;;5.60;5.10;;;10.40;99.90;;;;;;5033314;28;20171;-81
2023/05/09 03:56:13;;;;;;;6.00;5.40;;;10.40;99.90;;;;;;5032159;28;20193;-83
2023/05/09 03:58:38;;;;;;;5.93;5.43;;;10.40;99.90;;;;;;5031872;28;20242;-82
2023/05/09 04:01:04;;;;;;;5.90;5.30;;;10.40;99.90;;;;;;5031517;28;20228;-81
2023/05/09 04:03:31;;;;;;;7.77;5.43;;;10.40;99.90;;;;;;5035524;28;20165;-84
2023/05/09 04:05:57;;;;;;;6.60;5.13;;;10.40;99.90;;;;;;5034423;28;20218;-83
2023/05/09 04:08:22;;;;;;;5.30;4.90;;;10.40;99.90;;;;;;5032963;28;20171;-82
2023/05/09 04:10:49;;;;;;;5.33;4.80;;;10.40;99.90;;;;;;5032880;28;20183;-83
2023/05/09 04:13:15;;;;;;;5.50;5.00;;;10.40;99.90;;;;;;5034129;28;20212;-84
2023/05/09 04:15:41;;;;;;;5.30;4.80;;;10.40;99.90;;;;;;5036896;28;20170;-81
2023/05/09 04:18:08;;;;;;;5.40;4.80;;;10.60;99.90;;;;;;5031729;28;20177;-82
2023/05/09 04:20:34;;;;;;;6.73;5.10;;;10.40;99.90;;;;;;5033401;28;20248;-82
2023/05/09 04:23:00;;;;;;;5.57;5.07;;;10.40;99.90;;;;;;5032248;28;20180;-82
2023/05/09 04:25:26;;;;;;;5.07;4.67;;;10.40;99.90;;;;;;5033329;28;20175;-82
2023/05/09 04:27:52;;;;;;;5.07;4.67;;;10.50;99.90;;;;;;5033333;28;20194;-82
2023/05/09 04:30:18;;;;;;;4.30;4.00;;;10.50;99.90;;;;;;5034162;28;20206;-81
2023/05/09 04:32:44;;;;;;;4.87;4.47;;;10.60;99.90;;;;;;5034821;28;20221;-80
2023/05/09 04:35:11;;;;;;;4.63;4.23;;;10.60;99.90;;;;;;5035454;28;20189;-80
2023/05/09 04:37:37;;;;;;;4.80;4.40;;;10.60;99.90;;;;;;5032851;28;20654;-81
2023/05/09 04:40:04;;;;;;;9.40;4.23;;;10.40;99.90;;;;;;5031650;28;20185;-82
2023/05/09 04:42:32;;;;;;;4.63;4.30;;;10.40;99.90;;;;;;5034696;28;20207;-80
2023/05/09 04:44:58;;;;;;;4.90;4.50;;;10.40;99.90;;;;;;5042111;28;20232;-80
2023/05/09 04:47:24;;;;;;;5.47;4.33;;;10.50;99.90;;;;;;5035436;28;20256;-81
2023/05/09 04:49:50;;;;;;;4.37;3.97;;;10.60;99.90;;;;;;5035621;28;20592;-82
2023/05/09 04:52:15;;;;;;;4.77;4.27;;;10.60;99.90;;;;;;5050429;28;20206;-81
2023/05/09 04:54:41;;;;;;;4.87;4.37;;;10.60;99.90;;;;;;5040350;28;20582;-82
2023/05/09 04:57:07;;;;;;;4.20;3.80;;;10.60;99.90;;;;;;5036532;28;20173;-82
2023/05/09 04:59:34;;;;;;;4.90;4.50;;;10.60;99.90;;;;;;5036391;28;20219;-83
2023/05/09 05:01:59;;;;;;;6.23;4.13;;;10.70;99.90;;;;;;5036358;28;20627;-80
2023/05/09 05:04:25;;;;;;;5.63;4.17;;;10.80;99.90;;;;;;5039563;28;20174;-80
2023/05/09 05:06:51;;;;;;;4.70;4.30;;;10.70;99.90;;;;;;5036516;28;20233;-81
2023/05/09 05:09:17;;;;;;;4.43;4.13;;;10.60;99.90;;;;;;5035219;28;20308;-81
2023/05/09 05:11:42;;;;;;;4.33;4.03;;;10.70;99.90;;;;;;5036596;28;20219;-82
2023/05/09 05:14:08;;;;;;;4.73;4.23;;;10.70;99.90;;;;;;5036344;28;20178;-81
2023/05/09 05:16:34;;;;;;;4.40;4.10;;;10.60;99.90;;;;;;5036816;28;20185;-81
2023/05/09 05:18:59;;;;;;;4.30;4.00;;;10.50;99.90;;;;;;5036708;28;20276;-81
2023/05/09 05:21:25;;;;;;;4.67;4.00;;;10.60;99.90;;;;;;5036755;28;20240;-82
2023/05/09 05:23:51;;;;;;;5.97;5.37;;;10.60;99.90;;;;;;5034816;28;20636;-84
2023/05/09 05:26:16;;;;;;;4.73;4.33;;;10.50;99.90;;;;;;5036393;28;20181;-82
2023/05/09 05:28:42;;;;;;;5.47;4.97;;;10.50;99.90;;;;;;5035351;28;20699;-83
2023/05/09 05:31:08;;;;;;;6.13;5.47;;;10.50;99.90;;;;;;5036912;28;20174;-82
2023/05/09 05:33:34;;;;;;;5.50;4.17;;;10.50;99.90;;;;;;5036645;28;20548;-82
2023/05/09 05:36:00;;;;;;;4.53;4.10;;;10.50;99.90;;;;;;5036078;28;20174;-81
2023/05/09 05:38:25;;;;;;;7.97;5.57;;;10.40;99.90;;;;;;5037350;28;20182;-82
2023/05/09 05:40:51;;;;;;;5.80;5.20;;;10.40;99.90;;;;;;5036893;28;20236;-80
2023/05/09 05:43:17;;;;;;;3.83;3.53;;;10.50;99.90;;;;;;5035843;28;20183;-81
2023/05/09 05:45:43;;;;;;;6.43;4.73;;;10.50;99.90;;;;;;5035400;28;20525;-82
2023/05/09 05:48:08;;;;;;;4.83;4.30;;;10.50;99.90;;;;;;5033323;28;20182;-81
2023/05/09 05:50:35;;;;;;;4.87;4.23;;;10.50;99.90;;;;;;5034491;28;20181;-81
2023/05/09 05:53:01;;;;;;;4.20;3.80;;;10.60;99.90;;;;;;5034596;28;20217;-80
2023/05/09 05:55:27;;;;;;;3.97;3.67;;;10.60;99.90;;;;;;5035211;28;20704;-80
2023/05/09 05:57:53;;;;;;;3.97;3.67;;;10.60;99.90;;;;;;5037873;28;20177;-79
2023/05/09 06:00:19;;;;;;;4.30;3.90;;;10.70;99.90;;;;;;5037675;28;20174;-80
2023/05/09 06:02:46;;;;;;;4.20;3.90;;;10.70;99.90;;;;;;5035183;28;20178;-80
2023/05/09 06:05:12;;;;;;;4.07;3.77;;;10.80;99.90;;;;;;5034686;28;20250;-81
2023/05/09 06:07:43;;;;;;;5.90;3.73;;;10.80;99.90;;;;;;5035243;28;20261;-81
2023/05/09 06:10:09;;;;;;;4.30;3.90;;;10.90;99.90;;;;;;5036819;28;20245;-80
2023/05/09 06:12:35;;;;;;;3.77;3.47;;;11.00;99.90;;;;;;5047749;28;20201;-81
2023/05/09 06:15:03;;;;;;;3.70;3.40;;;11.10;99.90;;;;;;5034927;28;20677;-81
2023/05/09 06:17:29;;;;;;;4.37;3.97;;;11.10;99.90;;;;;;5034625;28;20183;-81
2023/05/09 06:19:55;;;;;;;5.57;4.00;;;11.00;99.90;;;;;;5035244;28;20174;-80
2023/05/09 06:22:20;;;;;;;6.40;4.20;;;11.00;99.90;;;;;;5036217;28;20178;-80
2023/05/09 06:24:46;;;;;;;3.83;3.63;;;11.00;99.90;;;;;;5038597;28;20186;-81
2023/05/09 06:27:12;;;;;;;5.63;3.70;;;11.10;99.90;;;;;;5035816;28;20186;-81
2023/05/09 06:29:37;;;;;;;5.73;3.80;;;11.30;99.90;;;;;;5035023;28;20185;-81
2023/05/09 06:32:04;;;;;;;4.00;3.70;;;11.40;99.90;;;;;;5034741;28;20224;-81
2023/05/09 06:34:29;;;;;;;4.13;3.83;;;11.40;99.90;;;;;;5034824;28;20249;-81
2023/05/09 06:36:55;;;;;;;4.00;3.70;;;11.50;99.90;;;;;;5033099;28;20280;-82
2023/05/09 06:39:21;;;;;;;3.97;3.60;;;11.50;99.90;;;;;;5034724;28;20212;-81
2023/05/09 06:41:46;;;;;;;4.33;3.93;;;11.50;99.90;;;;;;5035443;28;20240;-82
2023/05/09 06:44:12;;;;;;;4.03;3.63;;;11.60;99.90;;;;;;5034623;28;20583;-80
2023/05/09 06:46:38;;;;;;;4.83;3.70;;;11.80;99.90;;;;;;5034013;28;20177;-82
2023/05/09 06:49:04;;;;;;;4.30;3.87;;;11.80;99.90;;;;;;5033766;28;20214;-82
2023/05/09 06:51:31;;;;;;;4.07;3.77;;;11.90;99.90;;;;;;5036970;28;20193;-80
2023/05/09 06:53:56;;;;;;;3.90;3.70;;;11.80;99.90;;;;;;5034591;28;20182;-82
2023/05/09 06:56:24;;;;;;;4.10;3.80;;;11.70;99.90;;;;;;5034123;28;20188;-82
2023/05/09 06:58:50;;;;;;;4.30;3.90;;;11.70;99.90;;;;;;5033566;28;20181;-80
2023/05/09 07:01:16;;;;;;;4.00;3.70;;;11.70;99.90;;;;;;5033583;28;20556;-83
2023/05/09 07:03:42;;;;;;;4.20;3.90;;;11.80;99.90;;;;;;5032888;28;20191;-81
2023/05/09 07:06:08;;;;;;;3.73;3.43;;;11.90;99.90;;;;;;5033826;28;20696;-78
2023/05/09 07:08:34;;;;;;;5.37;3.50;;;12.00;99.90;;;;;;5034100;28;20284;-81
2023/05/09 07:11:00;;;;;;;3.83;3.53;;;12.00;99.90;;;;;;5032822;28;20185;-82
2023/05/09 07:13:26;;;;;;;3.87;3.57;;;12.10;99.90;;;;;;5035034;28;20205;-81
2023/05/09 07:15:51;;;;;;;5.27;3.90;;;12.20;99.90;;;;;;5035137;28;20634;-80
2023/05/09 07:18:17;;;;;;;4.00;3.43;;;12.40;99.90;;;;;;5033171;28;20184;-81
2023/05/09 07:20:43;;;;;;;3.77;3.47;;;12.30;99.90;;;;;;5035984;28;20527;-81
2023/05/09 07:23:09;;;;;;;4.20;3.80;;;12.40;99.90;;;;;;5037833;28;20179;-82
2023/05/09 07:25:34;;;;;;;4.13;3.83;;;12.20;99.90;;;;;;5034901;28;20177;-79
2023/05/09 07:28:00;;;;;;;4.67;3.57;;;12.20;99.90;;;;;;5035125;28;20228;-81
2023/05/09 07:30:26;;;;;;;4.37;3.50;;;12.50;99.90;;;;;;5034666;28;20255;-81
2023/05/09 07:32:52;;;;;;;4.07;3.70;;;12.80;99.90;;;;;;5043648;28;20212;-79
2023/05/09 07:35:18;;;;;;;4.20;3.83;;;13.00;99.90;;;;;;5035001;28;20554;-82
2023/05/09 07:37:44;;;;;;;4.03;3.70;;;12.80;99.90;;;;;;5033095;28;20216;-79
2023/05/09 07:40:10;;;;;;;4.30;3.97;;;13.00;99.90;;;;;;5033330;28;20200;-81
2023/05/09 07:42:36;;;;;;;3.90;3.60;;;13.20;99.90;;;;;;5033471;28;20189;-81
2023/05/09 07:45:04;;;;;;;3.57;3.37;;;13.40;99.90;;;;;;5033200;28;20171;-80
2023/05/09 07:47:31;;;;;;;3.87;3.57;;;13.70;99.90;;;;;;5032759;28;20261;-81
2023/05/09 07:49:57;;;;;;;3.63;3.33;;;13.80;99.90;;;;;;5033225;28;20173;-79
2023/05/09 07:52:22;;;;;;;3.77;3.47;;;13.80;99.90;;;;;;5036780;28;20207;-80
2023/05/09 07:54:48;;;;;;;3.70;3.40;;;14.10;99.90;;;;;;5033733;28;20178;-81
2023/05/09 07:57:14;;;;;;;3.30;3.10;;;14.30;99.90;;;;;;5032671;28;20186;-81
2023/05/09 07:59:41;;;;;;;3.70;3.40;;;14.50;99.90;;;;;;5032933;28;20651;-81
2023/05/09 08:02:07;;;;;;;4.03;3.70;;;14.50;99.90;;;;;;5033075;28;20200;-81
2023/05/09 08:04:32;;;;;;;3.53;3.33;;;14.60;99.90;;;;;;5038921;28;20540;-80
2023/05/09 08:06:58;;;;;;;3.70;3.50;;;14.60;99.90;;;;;;5041283;28;20220;-80
2023/05/09 08:09:25;;;;;;;3.97;3.53;;;14.70;99.90;;;;;;5033166;28;20640;-81
2023/05/09 08:11:51;;;;;;;3.70;3.40;;;14.70;99.90;;;;;;5032949;28;20208;-81
2023/05/09 08:14:17;;;;;;;4.00;3.53;;;14.80;99.90;;;;;;5032806;28;20232;-80
2023/05/09 08:16:42;;;;;;;5.97;3.43;;;14.80;99.90;;;;;;5032087;28;20592;-83
2023/05/09 08:19:08;;;;;;;3.53;3.30;;;14.90;99.90;;;;;;5032534;28;20176;-83
2023/05/09 08:21:34;;;;;;;4.23;3.83;;;14.80;99.90;;;;;;5032281;28;20204;-81
2023/05/09 08:24:00;;;;;;;3.80;3.50;;;15.00;99.90;;;;;;5032561;28;20255;-81
2023/05/09 08:26:26;;;;;;;3.87;3.60;;;15.10;99.90;;;;;;5032712;28;20268;-81
2023/05/09 08:28:53;;;;;;;3.90;3.60;;;15.20;99.90;;;;;;5031029;28;20184;-82
2023/05/09 08:31:19;;;;;;;3.33;3.00;;;15.30;99.90;;;;;;5032458;28;20250;-83
2023/05/09 08:33:44;;;;;;;4.57;4.17;;;15.30;99.90;;;;;;5032471;28;20173;-82
2023/05/09 08:36:10;;;;;;;5.00;4.03;;;15.10;99.90;;;;;;5033406;28;20164;-82
2023/05/09 08:38:39;;;;;;;4.33;3.93;;;15.00;99.90;;;;;;5032544;28;20173;-81
2023/05/09 08:41:04;;;;;;;3.90;3.60;;;15.00;99.90;;;;;;5032445;28;20666;-82
2023/05/09 08:43:32;;;;;;;4.27;3.43;;;15.30;99.90;;;;;;5032525;28;20271;-81
2023/05/09 08:46:01;;;;;;;3.90;3.60;;;15.40;99.90;;;;;;5032458;28;20177;-81
2023/05/09 08:48:27;;;;;;;7.23;3.77;;;15.50;99.90;;;;;;5037782;28;20170;-81
2023/05/09 08:50:55;;;;;;;4.83;4.43;;;15.60;99.90;;;;;;5040115;28;20280;-78
2023/05/09 08:53:21;;;;;;;4.43;4.17;;;15.60;99.90;;;;;;5037032;28;20225;-81
2023/05/09 08:55:49;;;;;;;4.50;4.10;;;15.80;99.90;;;;;;5036026;28;20191;-81
2023/05/09 08:58:15;;;;;;;4.40;4.10;;;15.90;99.90;;;;;;5032127;28;20539;-82
2023/05/09 09:00:41;;;;;;;6.23;4.63;;;16.00;99.90;;;;;;5032911;28;20627;-82
2023/05/09 09:03:07;;;;;;;5.30;4.50;;;16.10;99.90;;;;;;5032486;28;20204;-81
2023/05/09 09:05:36;;;;;;;5.03;4.53;;;16.10;99.90;;;;;;5032080;28;20234;-82
2023/05/09 09:08:06;;;;;;;4.20;4.00;;;16.10;99.90;;;;;;5031789;28;20653;-82
2023/05/09 09:10:33;;;;;;;4.43;3.97;;;16.00;99.90;;;;;;5032002;28;20253;-79
2023/05/09 09:13:00;;;;;;;4.83;4.13;;;16.00;99.90;;;;;;5030538;28;20222;-80
2023/05/09 09:15:36;;;;;;;5.90;4.60;;;16.20;99.90;;;;;;5030658;28;20262;-80
2023/05/09 09:18:08;;;;;;;4.53;4.17;;;16.10;99.90;;;;;;5031401;28;20169;-80
2023/05/09 09:20:43;;;;;;;4.33;4.03;;;16.30;99.90;;;;;;5031873;28;20172;-82
2023/05/09 09:23:10;;;;;;;4.37;4.07;;;16.20;99.90;;;;;;5032011;28;20175;-80
2023/05/09 09:25:36;;;;;;;4.37;4.00;;;16.00;99.90;;;;;;5032614;28;20172;-81
2023/05/09 09:28:03;;;;;;;3.90;3.70;;;16.00;99.90;;;;;;5032681;28;20188;-81
2023/05/09 09:30:28;;;;;;;4.23;3.93;;;15.80;99.90;;;;;;5031996;28;20173;-83
2023/05/09 09:33:00;;;;;;;4.20;3.90;;;15.80;99.90;;;;;;5031923;28;20228;-82
2023/05/09 09:35:36;;;;;;;4.53;4.20;;;15.50;99.90;;;;;;5031984;28;20179;-81
2023/05/09 09:38:05;;;;;;;5.27;4.57;;;15.60;99.90;;;;;;5031434;28;20172;-79
2023/05/09 09:40:31;;;;;;;4.57;4.17;;;15.80;99.90;;;;;;5034219;28;20190;-81
2023/05/09 09:42:56;;;;;;;4.30;3.90;;;15.90;99.90;;;;;;5034203;28;20576;-83
2023/05/09 09:45:22;;;;;;;4.47;4.07;;;15.80;99.90;;;;;;5039512;28;20183;-83
2023/05/09 09:47:49;;;;;;;4.93;4.33;;;15.80;99.90;;;;;;5046632;28;20173;-81
2023/05/09 09:50:16;;;;;;;4.80;4.40;;;15.90;99.90;;;;;;5036726;28;20646;-82
2023/05/09 09:52:50;;;;;;;4.87;4.47;;;16.00;99.90;;;;;;5036136;28;20247;-81
2023/05/09 09:55:17;;;;;;;6.17;5.03;;;16.20;99.90;;;;;;5035861;28;20179;-82
2023/05/09 09:57:44;;;;;;;5.13;4.60;;;16.30;99.90;;;;;;5035497;28;20187;-80
2023/05/09 10:00:12;;;;;;;4.40;4.10;;;16.30;99.90;;;;;;5035268;28;20172;-81
2023/05/09 10:02:51;;;;;;;5.43;4.97;;;16.40;99.90;;;;;;5035115;28;20227;-81
2023/05/09 10:05:19;;;;;;;4.43;4.13;;;16.40;99.90;;;;;;5033604;28;20229;-83
2023/05/09 10:07:45;;;;;;;4.40;4.10;;;16.30;99.90;;;;;;5035177;28;20187;-81
2023/05/09 10:10:11;;;;;;;4.50;4.10;;;16.10;99.90;;;;;;5036978;28;20176;-80
2023/05/09 10:12:37;;;;;;;4.50;4.10;;;16.00;99.90;;;;;;5040090;28;20566;-80
2023/05/09 10:15:07;;;;;;;4.50;4.10;;;15.90;99.90;;;;;;5040454;28;20559;-82
2023/05/09 10:17:33;;;;;;;5.17;4.67;;;15.80;99.90;;;;;;5040068;28;20184;-81
2023/05/09 10:20:03;;;;;;;4.60;4.20;;;15.80;99.90;;;;;;5035444;28;20184;-81
2023/05/09 10:22:32;;;;;;;7.07;4.37;;;15.90;99.90;;;;;;5040084;28;20171;-81
2023/05/09 10:25:03;;;;;;;4.60;4.20;;;16.00;99.90;;;;;;5037589;28;20168;-80
2023/05/09 10:27:33;;;;;;;4.40;4.10;;;15.70;99.90;;;;;;5035495;28;20180;-82
2023/05/09 10:30:12;;;;;;;4.67;4.27;;;15.70;99.90;;;;;;5033406;28;20514;-82
2023/05/09 10:32:48;;;;;;;5.27;4.77;;;15.80;99.90;;;;;;5033439;28;20210;-83
2023/05/09 10:35:16;;;;;;;4.33;4.03;;;15.80;99.90;;;;;;5035853;28;20210;-82
2023/05/09 10:37:43;;;;;;;4.87;4.50;;;16.00;99.90;;;;;;5035588;28;20179;-81
2023/05/09 10:40:13;;;;;;;4.87;4.47;;;16.20;99.90;;;;;;5034359;28;20177;-79
2023/05/09 10:42:43;;;;;;;5.03;4.60;;;16.30;99.90;;;;;;5034432;28;20180;-82
2023/05/09 10:45:11;;;;;;;5.43;5.00;;;16.30;99.90;;;;;;5034491;28;20180;-79
2023/05/09 10:47:41;;;;;;;5.00;4.60;;;16.10;99.90;;;;;;5034176;28;20182;-81
2023/05/09 10:50:09;;;;;;;4.93;4.30;;;16.00;99.90;;;;;;5034107;28;20195;-81
2023/05/09 10:53:09;;;;;;;5.40;4.90;;;16.20;99.90;;;;;;5032983;28;20212;-82
2023/05/09 10:55:36;;;;;;;5.30;4.80;;;15.80;99.90;;;;;;5034333;28;20495;-80
2023/05/09 10:58:25;;;;;;;9.17;5.77;;;15.90;99.90;;;;;;5034081;28;20172;-80
2023/05/09 11:00:54;;;;;;;6.60;6.00;;;16.20;99.90;;;;;;5034368;28;20184;-82
2023/05/09 11:03:20;;;;;;;5.47;4.97;;;16.60;99.90;;;;;;5034135;28;20172;-82
2023/05/09 11:05:48;;;;;;;6.77;5.50;;;16.50;99.90;;;;;;5033816;28;20719;-79
2023/05/09 11:08:29;;;;;;;5.33;4.83;;;16.60;99.90;;;;;;5033832;28;20668;-81
2023/05/09 11:11:06;;;;;;;6.03;5.43;;;16.30;99.90;;;;;;5032400;28;20168;-80
2023/05/09 11:13:36;;;;;;;10.37;5.27;;;16.30;99.90;;;;;;5033700;28;20206;-80
2023/05/09 11:16:11;;;;;;;5.27;4.87;;;16.50;99.90;;;;;;5033698;28;20257;-81
2023/05/09 11:18:50;;;;;;;5.30;4.90;;;16.50;99.90;;;;;;5032346;28;20212;-79
2023/05/09 11:21:19;;;;;;;5.93;4.97;;;16.30;99.90;;;;;;5033932;28;20626;-81
2023/05/09 11:23:45;;;;;;;6.23;4.90;;;16.10;99.90;;;;;;5035592;28;20180;-80
2023/05/09 11:26:11;;;;;;;5.00;4.60;;;16.00;99.90;;;;;;5037150;28;20183;-80
2023/05/09 11:28:37;;;;;;;6.07;5.47;;;16.30;99.90;;;;;;5049229;28;20176;-82
2023/05/09 11:31:18;;;;;;;5.77;5.27;;;16.20;99.90;;;;;;5039069;28;20161;-82
2023/05/09 11:33:47;;;;;;;5.63;5.13;;;16.10;99.90;;;;;;5036946;28;20229;-80
2023/05/09 11:36:28;;;;;;;5.90;5.33;;;16.30;99.90;;;;;;5042615;28;20168;-81
2023/05/09 11:39:10;;;;;;;5.90;5.40;;;16.60;99.90;;;;;;5045532;28;20176;-82
2023/05/09 11:41:39;;;;;;;5.87;5.37;;;16.10;99.90;;;;;;5036367;28;20256;-81
2023/05/09 11:44:15;;;;;;;5.10;4.63;;;16.00;99.90;;;;;;5035703;28;20234;-80
2023/05/09 11:46:42;;;;;;;5.60;4.93;;;16.40;99.90;;;;;;5034385;28;20207;-81
2023/05/09 11:49:09;;;;;;;5.03;4.63;;;16.70;99.90;;;;;;5032254;28;20176;-80
2023/05/09 11:51:37;;;;;;;5.50;5.07;;;16.90;99.90;;;;;;5033207;28;20565;-81
2023/05/09 11:54:05;;;;;;;5.50;4.90;;;16.90;99.90;;;;;;5033554;28;20173;-80
2023/05/09 11:56:32;;;;;;;5.80;5.30;;;16.90;99.90;;;;;;5033505;28;20179;-82
2023/05/09 11:58:58;;;;;;;6.03;5.53;;;16.70;99.90;;;;;;5037157;28;20175;-80
2023/05/09 12:01:24;;;;;;;5.47;5.00;;;16.70;99.90;;;;;;5037309;28;20633;-82
2023/05/09 12:03:50;;;;;;;5.87;5.10;;;16.80;99.90;;;;;;5031916;28;20304;-82
2023/05/09 12:06:18;;;;;;;5.77;5.17;;;16.90;99.90;;;;;;5031314;28;20319;-81
2023/05/09 12:08:47;;;;;;;5.80;5.30;;;16.80;99.90;;;;;;5034293;28;20452;-82
2023/05/09 12:11:14;;;;;;;6.07;5.57;;;16.70;99.90;;;;;;5043115;28;20172;-82
2023/05/09 12:13:47;;;;;;;5.07;4.67;;;16.50;99.90;;;;;;5034037;28;20204;-81
2023/05/09 12:16:15;;;;;;;5.30;4.90;;;16.60;99.90;;;;;;5031840;28;20177;-80
2023/05/09 12:18:51;;;;;;;5.90;5.37;;;16.70;99.90;;;;;;5031162;28;20200;-81
2023/05/09 12:21:18;;;;;;;8.67;6.07;;;16.70;99.90;;;;;;5031932;28;20182;-82
2023/05/09 12:23:45;;;;;;;5.60;5.10;;;17.00;99.90;;;;;;5032699;28;20177;-81
2023/05/09 12:26:11;;;;;;;5.73;5.30;;;17.30;99.90;;;;;;5031008;28;20271;-81
2023/05/09 12:28:37;;;;;;;4.93;4.53;;;17.40;99.90;;;;;;5032632;28;20191;-81
2023/05/09 12:31:05;;;;;;;7.00;5.67;;;17.30;99.90;;;;;;5032515;28;20183;-81
2023/05/09 12:33:31;;;;;;;7.00;5.37;;;17.20;99.90;;;;;;5032365;28;20204;-81
2023/05/09 12:36:09;;;;;;;5.67;5.17;;;17.00;99.90;;;;;;5032011;28;20168;-80
2023/05/09 12:38:36;;;;;;;5.70;5.30;;;17.00;99.90;;;;;;5032522;28;20262;-81
2023/05/09 12:41:03;;;;;;;7.40;5.10;;;17.10;99.90;;;;;;5031972;28;20806;-81
2023/05/09 12:43:34;;;;;;;5.87;5.37;;;17.30;99.90;;;;;;5032284;28;20183;-79
2023/05/09 12:46:01;;;;;;;5.13;4.70;;;17.20;99.90;;;;;;5032064;28;20255;-81
2023/05/09 12:48:28;;;;;;;5.00;3.80;;;17.30;99.90;;;;;;5032129;28;20176;-81